»·PEaware :: N805RJ L65-KIZA

N805RJ :: L65-KIZA

FLIGHT INFORMATION

Flight Status: Arrived
Operator: Privately registered:
United States
More flights under this callsign
Pilot: Rickie J. (22768)
Aircraft: CESSNA 172 SKYHAWK
(C172)
More flights by this aircraft type
Origin: L65 Perris Valley
United States
Destination: KIZA Santa Ynez
United States
More flights between these airports :: More routes between these airports
Route: PERIS WESIN V186 RZS
File this flight plan on PilotEdge
Remarks:
Altitude:
(Current/Filed)
6,500ft
Speed:
(Current/Filed)
120kts
Departed: 24-Jul-20 01:58 PM
Arrived: 24-Jul-20 03:25 PM
Distance/Time
Traveled:
151nm/1:27
Distance/Time
To Go:
Arrived

Flight Plot

Page will automatically refresh every two minutes.

Flight plan parsing failed; only flown route is shown


Map Options




Map Legend


Flown Route
Filed Route
Departure Airport
Arrival Airport
Navaid (VOR, NDB)
Fix

Horizontal Profiles

Position Reports

Time Latitude Longitude Heading Altitude Ground
Speed
24-Jul-20 13:26 33.761448 -117.218601 52 1417ft 0kts
24-Jul-20 13:27 33.761448 -117.218601 52 1417ft 0kts
24-Jul-20 13:28 33.761448 -117.218601 52 1417ft 0kts
24-Jul-20 13:29 33.761448 -117.218601 52 1417ft 0kts
24-Jul-20 13:30 33.761448 -117.218601 52 1417ft 0kts
24-Jul-20 13:31 33.761448 -117.218601 52 1417ft 0kts
24-Jul-20 13:32 33.761448 -117.218601 52 1417ft 0kts
24-Jul-20 13:33 33.761448 -117.218601 52 1417ft 0kts
24-Jul-20 13:34 33.761448 -117.218601 52 1417ft 0kts
24-Jul-20 13:35 33.761448 -117.218601 52 1417ft 0kts
24-Jul-20 13:36 33.761448 -117.218601 52 1417ft 0kts
24-Jul-20 13:37 33.761448 -117.218601 52 1417ft 0kts
24-Jul-20 13:38 33.761448 -117.218601 52 1417ft 0kts
24-Jul-20 13:39 33.761448 -117.218601 52 1417ft 0kts
24-Jul-20 13:40 33.761448 -117.218601 52 1417ft 0kts
24-Jul-20 13:41 33.761448 -117.218601 52 1417ft 0kts
24-Jul-20 13:42 33.761448 -117.218601 52 1417ft 0kts
24-Jul-20 13:43 33.761448 -117.218601 52 1417ft 0kts
24-Jul-20 13:44 33.761448 -117.218601 52 1417ft 0kts
24-Jul-20 13:45 33.761448 -117.218601 52 1417ft 0kts
24-Jul-20 13:46 33.761448 -117.218601 52 1417ft 0kts
24-Jul-20 13:47 33.761448 -117.218601 52 1417ft 0kts
24-Jul-20 13:48 33.761448 -117.218601 52 1417ft 0kts
24-Jul-20 13:50 33.761450 -117.218597 52 1417ft 0kts
24-Jul-20 13:51 33.761022 -117.218339 177 1417ft 4kts
24-Jul-20 13:52 33.759528 -117.218035 167 1417ft 6kts
24-Jul-20 13:53 33.758189 -117.217611 137 1417ft 0kts
24-Jul-20 13:54 33.758189 -117.217611 137 1417ft 0kts
24-Jul-20 13:55 33.758189 -117.217611 137 1417ft 0kts
24-Jul-20 13:56 33.758189 -117.217611 137 1417ft 0kts
24-Jul-20 13:57 33.758312 -117.217149 346 1417ft 3kts
24-Jul-20 13:58 33.774618 -117.223993 306 1683ft 90kts
24-Jul-20 13:59 33.758727 -117.235578 163 2425ft 102kts
24-Jul-20 14:00 33.731457 -117.223324 143 3122ft 109kts
24-Jul-20 14:01 33.707694 -117.204715 183 3804ft 104kts
24-Jul-20 14:02 33.680666 -117.209798 196 4487ft 97kts
24-Jul-20 14:03 33.655354 -117.217092 196 5172ft 91kts
24-Jul-20 14:04 33.631890 -117.224044 195 5808ft 89kts
24-Jul-20 14:05 33.606270 -117.231688 195 6177ft 103kts
24-Jul-20 14:06 33.580477 -117.243856 241 6459ft 112kts
24-Jul-20 14:07 33.598976 -117.271911 326 6502ft 133kts
24-Jul-20 14:08 33.629764 -117.295273 324 6502ft 134kts
24-Jul-20 14:09 33.660138 -117.318623 324 6500ft 134kts
24-Jul-20 14:10 33.691000 -117.342365 324 6502ft 134kts
24-Jul-20 14:11 33.721881 -117.366143 325 6501ft 134kts
24-Jul-20 14:12 33.751700 -117.390482 322 6502ft 134kts
24-Jul-20 14:13 33.781146 -117.415159 326 6531ft 131kts
24-Jul-20 14:14 33.810737 -117.439788 322 6490ft 135kts
24-Jul-20 14:15 33.840890 -117.465128 322 6476ft 136kts
24-Jul-20 14:16 33.870753 -117.490170 322 6504ft 135kts
24-Jul-20 14:17 33.900490 -117.515126 322 6502ft 136kts
24-Jul-20 14:18 33.923794 -117.546785 292 6504ft 132kts
24-Jul-20 14:19 33.938102 -117.586181 289 6504ft 132kts
24-Jul-20 14:20 33.952018 -117.625568 289 6513ft 133kts
24-Jul-20 14:21 33.965543 -117.663931 289 6505ft 133kts
24-Jul-20 14:21 33.977155 -117.696906 289 6507ft 133kts
24-Jul-20 14:23 33.993284 -117.742805 289 6507ft 133kts
24-Jul-20 14:23 34.003982 -117.775376 287 6508ft 133kts
24-Jul-20 14:25 34.017367 -117.818443 287 6534ft 130kts
24-Jul-20 14:26 34.027655 -117.851666 285 6507ft 130kts
24-Jul-20 14:27 34.037387 -117.883174 289 6518ft 128kts
24-Jul-20 14:28 34.048762 -117.920065 287 6506ft 130kts
24-Jul-20 14:28 34.058968 -117.953194 287 6511ft 129kts
24-Jul-20 14:30 34.073976 -118.001964 286 6506ft 129kts
24-Jul-20 14:30 34.084675 -118.036775 287 6506ft 129kts
24-Jul-20 14:32 34.099759 -118.085943 286 6509ft 129kts
24-Jul-20 14:32 34.109604 -118.118002 286 6502ft 129kts
24-Jul-20 14:33 34.121903 -118.158340 286 6500ft 129kts
24-Jul-20 14:35 34.136034 -118.204596 287 6510ft 129kts
24-Jul-20 14:35 34.146532 -118.238878 287 6503ft 129kts
24-Jul-20 14:37 34.161020 -118.286529 288 6505ft 129kts
24-Jul-20 14:37 34.171329 -118.320435 287 6513ft 129kts
24-Jul-20 14:39 34.185558 -118.367164 288 6505ft 129kts
24-Jul-20 14:39 34.195756 -118.400760 286 6502ft 129kts
24-Jul-20 14:40 34.208004 -118.441209 287 6507ft 129kts
24-Jul-20 14:41 34.220171 -118.481398 287 6499ft 129kts
24-Jul-20 14:42 34.233205 -118.520437 290 6501ft 129kts
24-Jul-20 14:43 34.246696 -118.559799 290 6502ft 129kts
24-Jul-20 14:44 34.260342 -118.599533 289 6504ft 129kts
24-Jul-20 14:45 34.272796 -118.635932 290 6505ft 129kts
24-Jul-20 14:46 34.284235 -118.669374 290 6498ft 129kts
24-Jul-20 14:47 34.298723 -118.711713 290 6504ft 130kts
24-Jul-20 14:48 34.313342 -118.754517 290 6504ft 130kts
24-Jul-20 14:49 34.327238 -118.795267 290 6504ft 130kts
24-Jul-20 14:50 34.341169 -118.836170 290 6504ft 130kts
24-Jul-20 14:51 34.354612 -118.877182 276 6502ft 130kts
24-Jul-20 14:52 34.353286 -118.920948 263 6504ft 129kts
24-Jul-20 14:53 34.350381 -118.964528 263 6504ft 129kts
24-Jul-20 14:54 34.347245 -119.008049 262 6504ft 129kts
24-Jul-20 14:55 34.344045 -119.051591 262 6504ft 129kts
24-Jul-20 14:56 34.340821 -119.095111 262 6504ft 129kts
24-Jul-20 14:57 34.337584 -119.138573 262 6504ft 129kts
24-Jul-20 14:58 34.334312 -119.182270 262 6504ft 129kts
24-Jul-20 14:59 34.331033 -119.225858 262 6504ft 129kts
24-Jul-20 15:00 34.327744 -119.269330 262 6504ft 129kts
24-Jul-20 15:01 34.324435 -119.312851 262 6504ft 129kts
24-Jul-20 15:02 34.321133 -119.356073 262 6504ft 129kts
24-Jul-20 15:03 34.317831 -119.399108 262 6504ft 129kts
24-Jul-20 15:04 34.330080 -119.439299 300 6504ft 131kts
24-Jul-20 15:05 34.349712 -119.476890 302 6504ft 131kts
24-Jul-20 15:06 34.369766 -119.513995 302 6504ft 131kts
24-Jul-20 15:07 34.389936 -119.551052 302 6504ft 131kts
24-Jul-20 15:08 34.410202 -119.588158 302 6504ft 131kts
24-Jul-20 15:09 34.430318 -119.625144 302 6504ft 131kts
24-Jul-20 15:10 34.449686 -119.660791 301 6504ft 130kts
24-Jul-20 15:11 34.468646 -119.695700 299 6503ft 131kts
24-Jul-20 15:12 34.487889 -119.731407 306 6505ft 131kts
24-Jul-20 15:13 34.505567 -119.763773 305 6240ft 125kts
24-Jul-20 15:14 34.519197 -119.801031 294 5652ft 134kts
24-Jul-20 15:15 34.536065 -119.841572 297 4884ft 148kts
24-Jul-20 15:16 34.556750 -119.880920 297 4115ft 137kts
24-Jul-20 15:17 34.571968 -119.913983 290 3537ft 99kts
24-Jul-20 15:18 34.581134 -119.941936 285 3055ft 89kts
24-Jul-20 15:19 34.588717 -119.968968 284 2583ft 88kts
24-Jul-20 15:20 34.594466 -119.991223 282 2196ft 69kts
24-Jul-20 15:21 34.598944 -120.013245 277 1813ft 72kts
24-Jul-20 15:22 34.602031 -120.036559 276 1442ft 72kts
24-Jul-20 15:23 34.604920 -120.059171 275 1009ft 65kts
24-Jul-20 15:24 34.606899 -120.076409 275 674ft 8kts
24-Jul-20 15:25 34.607344 -120.076884 4 674ft 0kts
24-Jul-20 15:26 34.607259 -120.075793 99 674ft 7kts
24-Jul-20 15:27 34.607834 -120.074136 22 674ft 3kts
24-Jul-20 15:28 34.607900 -120.073310 190 674ft 0kts
24-Jul-20 15:29 34.607900 -120.073310 190 674ft 0kts
24-Jul-20 15:30 34.607900 -120.073310 190 674ft 0kts
24-Jul-20 15:31 34.607900 -120.073310 190 674ft 0kts
24-Jul-20 15:32 34.607900 -120.073310 190 674ft 0kts

Navigation Log

Ident Type
Flight plan parsing failed, navigation log unavailable